sensor_id;sensor_type;location;lat;lon;timestamp;pressure;altitude;pressure_sealevel;temperature;humidity
62680;BME280;68213;40.528;44.712;2023-03-16T00:00:07;79827.66;;;6.66;59.88
62680;BME280;68213;40.528;44.712;2023-03-16T00:01:12;79828.31;;;6.79;59.59
62680;BME280;68213;40.528;44.712;2023-03-16T00:02:14;79828.75;;;6.87;59.07
62680;BME280;68213;40.528;44.712;2023-03-16T00:03:15;79830.31;;;6.92;58.91
62680;BME280;68213;40.528;44.712;2023-03-16T00:04:18;79822.47;;;6.92;59.00
62680;BME280;68213;40.528;44.712;2023-03-16T00:05:19;79819.19;;;6.92;59.05
62680;BME280;68213;40.528;44.712;2023-03-16T00:06:19;79810.47;;;6.87;58.83
62680;BME280;68213;40.528;44.712;2023-03-16T00:07:20;79818.25;;;6.99;58.56
62680;BME280;68213;40.528;44.712;2023-03-16T00:08:21;79820.06;;;6.96;58.65
62680;BME280;68213;40.528;44.712;2023-03-16T00:09:22;79813.22;;;7.03;58.49
62680;BME280;68213;40.528;44.712;2023-03-16T00:10:30;79807.44;;;7.05;58.35
62680;BME280;68213;40.528;44.712;2023-03-16T00:11:30;79797.34;;;6.99;58.10
62680;BME280;68213;40.528;44.712;2023-03-16T00:12:31;79802.00;;;7.01;58.36
62680;BME280;68213;40.528;44.712;2023-03-16T00:13:34;79805.66;;;6.95;58.59
62680;BME280;68213;40.528;44.712;2023-03-16T00:14:37;79809.28;;;6.90;58.76
62680;BME280;68213;40.528;44.712;2023-03-16T00:15:38;79802.34;;;6.95;58.64
62680;BME280;68213;40.528;44.712;2023-03-16T00:16:38;79807.56;;;6.95;58.60
62680;BME280;68213;40.528;44.712;2023-03-16T00:17:39;79805.53;;;6.93;58.42
62680;BME280;68213;40.528;44.712;2023-03-16T00:18:40;79806.47;;;6.86;58.77
62680;BME280;68213;40.528;44.712;2023-03-16T00:19:40;79809.88;;;6.89;58.71
62680;BME280;68213;40.528;44.712;2023-03-16T00:20:57;79812.59;;;6.91;58.74
62680;BME280;68213;40.528;44.712;2023-03-16T00:21:58;79810.53;;;6.89;58.88
62680;BME280;68213;40.528;44.712;2023-03-16T00:22:59;79805.22;;;6.87;58.92
62680;BME280;68213;40.528;44.712;2023-03-16T00:24:02;79807.84;;;6.87;58.83
62680;BME280;68213;40.528;44.712;2023-03-16T00:25:03;79805.63;;;6.70;59.00
62680;BME280;68213;40.528;44.712;2023-03-16T00:26:07;79790.69;;;6.46;59.64
62680;BME280;68213;40.528;44.712;2023-03-16T00:27:11;79802.47;;;6.59;59.67
62680;BME280;68213;40.528;44.712;2023-03-16T00:28:15;79805.66;;;6.46;59.50
62680;BME280;68213;40.528;44.712;2023-03-16T00:29:15;79806.38;;;6.46;60.21
62680;BME280;68213;40.528;44.712;2023-03-16T00:30:16;79797.75;;;6.44;60.36
62680;BME280;68213;40.528;44.712;2023-03-16T00:31:17;79800.44;;;6.46;60.47
62680;BME280;68213;40.528;44.712;2023-03-16T00:32:22;79799.97;;;6.49;60.13
62680;BME280;68213;40.528;44.712;2023-03-16T00:33:24;79795.66;;;6.54;59.93
62680;BME280;68213;40.528;44.712;2023-03-16T00:34:24;79794.53;;;6.57;59.84
62680;BME280;68213;40.528;44.712;2023-03-16T00:35:27;79795.97;;;6.60;59.47
62680;BME280;68213;40.528;44.712;2023-03-16T00:36:28;79796.88;;;6.65;59.40
62680;BME280;68213;40.528;44.712;2023-03-16T00:37:30;79793.75;;;6.55;59.54
62680;BME280;68213;40.528;44.712;2023-03-16T00:38:34;79799.97;;;6.61;59.63
62680;BME280;68213;40.528;44.712;2023-03-16T00:39:35;79792.72;;;6.48;59.37
62680;BME280;68213;40.528;44.712;2023-03-16T00:40:36;79799.31;;;6.49;59.89
62680;BME280;68213;40.528;44.712;2023-03-16T00:41:36;79792.28;;;6.51;60.02
62680;BME280;68213;40.528;44.712;2023-03-16T00:42:37;79788.63;;;6.57;59.75
62680;BME280;68213;40.528;44.712;2023-03-16T00:43:39;79792.00;;;6.59;59.79
62680;BME280;68213;40.528;44.712;2023-03-16T00:44:40;79778.53;;;6.51;59.52
62680;BME280;68213;40.528;44.712;2023-03-16T00:45:41;79792.94;;;6.52;59.38
62680;BME280;68213;40.528;44.712;2023-03-16T00:46:44;79796.13;;;6.50;59.79
62680;BME280;68213;40.528;44.712;2023-03-16T00:47:44;79801.59;;;6.43;59.57
62680;BME280;68213;40.528;44.712;2023-03-16T00:48:46;79782.25;;;6.10;60.09
62680;BME280;68213;40.528;44.712;2023-03-16T00:49:46;79800.94;;;6.30;60.58
62680;BME280;68213;40.528;44.712;2023-03-16T00:50:47;79799.81;;;6.33;60.38
62680;BME280;68213;40.528;44.712;2023-03-16T00:51:47;79803.66;;;5.97;60.61
62680;BME280;68213;40.528;44.712;2023-03-16T00:52:48;79790.63;;;5.97;60.97
62680;BME280;68213;40.528;44.712;2023-03-16T00:53:50;79799.72;;;6.08;61.24
62680;BME280;68213;40.528;44.712;2023-03-16T00:54:50;79779.84;;;5.79;60.99
62680;BME280;68213;40.528;44.712;2023-03-16T00:55:54;79797.09;;;5.72;61.88
62680;BME280;68213;40.528;44.712;2023-03-16T00:56:55;79795.16;;;5.61;62.53
62680;BME280;68213;40.528;44.712;2023-03-16T00:57:55;79800.97;;;5.71;62.49
62680;BME280;68213;40.528;44.712;2023-03-16T00:58:56;79798.69;;;5.77;62.25
62680;BME280;68213;40.528;44.712;2023-03-16T00:59:56;79801.06;;;5.85;62.03
62680;BME280;68213;40.528;44.712;2023-03-16T01:00:58;79802.75;;;5.92;61.71
62680;BME280;68213;40.528;44.712;2023-03-16T01:02:01;79792.22;;;5.90;61.43
62680;BME280;68213;40.528;44.712;2023-03-16T01:03:02;79794.94;;;6.04;61.71
62680;BME280;68213;40.528;44.712;2023-03-16T01:04:02;79799.81;;;6.10;61.38
62680;BME280;68213;40.528;44.712;2023-03-16T01:05:03;79790.75;;;6.11;61.40
62680;BME280;68213;40.528;44.712;2023-03-16T01:06:07;79799.16;;;6.21;61.13
62680;BME280;68213;40.528;44.712;2023-03-16T01:07:12;79799.25;;;6.23;60.97
62680;BME280;68213;40.528;44.712;2023-03-16T01:08:13;79793.69;;;6.17;60.75
62680;BME280;68213;40.528;44.712;2023-03-16T01:09:14;79803.22;;;6.12;61.19
62680;BME280;68213;40.528;44.712;2023-03-16T01:10:14;79798.69;;;6.13;60.86
62680;BME280;68213;40.528;44.712;2023-03-16T01:11:19;79794.16;;;6.13;60.79
62680;BME280;68213;40.528;44.712;2023-03-16T01:12:20;79792.31;;;6.16;61.04
62680;BME280;68213;40.528;44.712;2023-03-16T01:13:21;79794.03;;;6.23;61.10
62680;BME280;68213;40.528;44.712;2023-03-16T01:14:21;79787.88;;;6.30;60.75
62680;BME280;68213;40.528;44.712;2023-03-16T01:15:23;79779.59;;;6.34;60.56
62680;BME280;68213;40.528;44.712;2023-03-16T01:16:24;79783.69;;;6.37;60.51
62680;BME280;68213;40.528;44.712;2023-03-16T01:17:25;79786.19;;;6.23;60.33
62680;BME280;68213;40.528;44.712;2023-03-16T01:18:27;79780.66;;;6.05;60.68
62680;BME280;68213;40.528;44.712;2023-03-16T01:19:28;79784.41;;;6.02;60.74
62680;BME280;68213;40.528;44.712;2023-03-16T01:20:29;79773.84;;;5.88;61.24
62680;BME280;68213;40.528;44.712;2023-03-16T01:21:32;79788.00;;;5.85;61.50
62680;BME280;68213;40.528;44.712;2023-03-16T01:22:33;79785.66;;;5.89;61.89
62680;BME280;68213;40.528;44.712;2023-03-16T01:23:35;79777.13;;;5.88;62.15
62680;BME280;68213;40.528;44.712;2023-03-16T01:24:37;79781.03;;;5.99;61.73
62680;BME280;68213;40.528;44.712;2023-03-16T01:25:38;79792.34;;;5.68;62.58
62680;BME280;68213;40.528;44.712;2023-03-16T01:26:40;79790.06;;;5.75;62.76
62680;BME280;68213;40.528;44.712;2023-03-16T01:27:41;79774.63;;;5.79;62.68
62680;BME280;68213;40.528;44.712;2023-03-16T01:28:42;79774.50;;;5.88;62.37
62680;BME280;68213;40.528;44.712;2023-03-16T01:29:44;79781.03;;;5.99;62.35
62680;BME280;68213;40.528;44.712;2023-03-16T01:30:44;79782.34;;;6.00;62.09
62680;BME280;68213;40.528;44.712;2023-03-16T01:31:45;79772.94;;;5.95;61.94
62680;BME280;68213;40.528;44.712;2023-03-16T01:32:46;79774.78;;;6.05;61.92
62680;BME280;68213;40.528;44.712;2023-03-16T01:33:46;79771.00;;;6.08;61.70
62680;BME280;68213;40.528;44.712;2023-03-16T01:34:47;79771.91;;;6.12;61.58
62680;BME280;68213;40.528;44.712;2023-03-16T01:35:54;79767.38;;;6.13;61.25
62680;BME280;68213;40.528;44.712;2023-03-16T01:36:55;79766.94;;;6.16;61.17
62680;BME280;68213;40.528;44.712;2023-03-16T01:37:56;79765.09;;;6.19;61.03
62680;BME280;68213;40.528;44.712;2023-03-16T01:38:57;79764.41;;;6.18;61.24
62680;BME280;68213;40.528;44.712;2023-03-16T01:40:02;79766.56;;;6.22;61.14
62680;BME280;68213;40.528;44.712;2023-03-16T01:41:05;79744.91;;;6.08;61.06
62680;BME280;68213;40.528;44.712;2023-03-16T01:42:06;79772.69;;;6.27;61.19
62680;BME280;68213;40.528;44.712;2023-03-16T01:43:11;79778.69;;;6.29;60.86
62680;BME280;68213;40.528;44.712;2023-03-16T01:44:14;79775.06;;;6.34;60.89
62680;BME280;68213;40.528;44.712;2023-03-16T01:46:05;79776.75;;;6.42;60.66
62680;BME280;68213;40.528;44.712;2023-03-16T01:47:09;79774.94;;;6.32;60.72
62680;BME280;68213;40.528;44.712;2023-03-16T01:48:11;79773.28;;;6.01;61.12
62680;BME280;68213;40.528;44.712;2023-03-16T01:50:19;79771.25;;;6.00;61.96
62680;BME280;68213;40.528;44.712;2023-03-16T01:52:44;79773.97;;;5.66;62.73
62680;BME280;68213;40.528;44.712;2023-03-16T01:53:46;79779.66;;;5.75;62.65
62680;BME280;68213;40.528;44.712;2023-03-16T01:54:56;79771.94;;;5.77;62.61
62680;BME280;68213;40.528;44.712;2023-03-16T01:55:59;79770.00;;;5.77;62.73
62680;BME280;68213;40.528;44.712;2023-03-16T01:58:07;79772.16;;;5.81;62.74
62680;BME280;68213;40.528;44.712;2023-03-16T01:59:12;79773.19;;;5.76;62.39
62680;BME280;68213;40.528;44.712;2023-03-16T02:00:18;79780.44;;;5.65;62.57
62680;BME280;68213;40.528;44.712;2023-03-16T02:01:20;79778.50;;;5.54;63.27
62680;BME280;68213;40.528;44.712;2023-03-16T02:02:26;79781.22;;;5.56;63.48
62680;BME280;68213;40.528;44.712;2023-03-16T02:03:31;79775.91;;;5.54;63.08
62680;BME280;68213;40.528;44.712;2023-03-16T02:05:54;79776.78;;;5.59;63.32
62680;BME280;68213;40.528;44.712;2023-03-16T02:06:57;79780.75;;;5.60;63.48
62680;BME280;68213;40.528;44.712;2023-03-16T02:08:00;79776.34;;;5.62;63.33
62680;BME280;68213;40.528;44.712;2023-03-16T02:09:02;79767.63;;;5.46;63.80
62680;BME280;68213;40.528;44.712;2023-03-16T02:10:03;79776.56;;;5.43;63.71
62680;BME280;68213;40.528;44.712;2023-03-16T02:11:07;79770.22;;;5.34;64.02
62680;BME280;68213;40.528;44.712;2023-03-16T02:12:09;79773.94;;;5.19;63.85
62680;BME280;68213;40.528;44.712;2023-03-16T02:13:17;79781.81;;;4.97;64.77
62680;BME280;68213;40.528;44.712;2023-03-16T02:14:18;79778.28;;;4.92;64.85
62680;BME280;68213;40.528;44.712;2023-03-16T02:15:19;79773.22;;;4.95;65.29
62680;BME280;68213;40.528;44.712;2023-03-16T02:16:20;79778.53;;;4.97;65.58
62680;BME280;68213;40.528;44.712;2023-03-16T02:17:24;79780.44;;;4.96;65.58
62680;BME280;68213;40.528;44.712;2023-03-16T02:18:26;79770.94;;;4.89;65.65
62680;BME280;68213;40.528;44.712;2023-03-16T02:19:34;79759.97;;;4.90;65.38
62680;BME280;68213;40.528;44.712;2023-03-16T02:22:00;79789.56;;;5.19;65.08
62680;BME280;68213;40.528;44.712;2023-03-16T02:23:04;79792.41;;;5.23;65.16
62680;BME280;68213;40.528;44.712;2023-03-16T02:24:05;79788.66;;;5.26;64.89
62680;BME280;68213;40.528;44.712;2023-03-16T02:25:06;79787.56;;;5.29;64.58
62680;BME280;68213;40.528;44.712;2023-03-16T02:26:14;79790.72;;;5.28;64.91
62680;BME280;68213;40.528;44.712;2023-03-16T02:27:39;79795.03;;;5.23;64.88
62680;BME280;68213;40.528;44.712;2023-03-16T02:30:54;79790.47;;;5.23;64.91
62680;BME280;68213;40.528;44.712;2023-03-16T02:31:56;79787.97;;;5.14;65.14
62680;BME280;68213;40.528;44.712;2023-03-16T02:32:58;79770.94;;;4.89;65.51
62680;BME280;68213;40.528;44.712;2023-03-16T02:33:59;79790.81;;;5.06;65.50
62680;BME280;68213;40.528;44.712;2023-03-16T02:35:01;79790.56;;;5.02;65.78
62680;BME280;68213;40.528;44.712;2023-03-16T02:36:02;79795.66;;;5.12;65.41
62680;BME280;68213;40.528;44.712;2023-03-16T02:37:03;79788.88;;;5.06;65.45
62680;BME280;68213;40.528;44.712;2023-03-16T02:38:05;79785.91;;;5.00;65.88
62680;BME280;68213;40.528;44.712;2023-03-16T02:39:05;79779.94;;;5.10;65.32
62680;BME280;68213;40.528;44.712;2023-03-16T02:40:33;79780.50;;;5.20;65.17
62680;BME280;68213;40.528;44.712;2023-03-16T02:41:34;79778.03;;;5.22;65.08
62680;BME280;68213;40.528;44.712;2023-03-16T02:42:34;79778.38;;;5.28;64.78
62680;BME280;68213;40.528;44.712;2023-03-16T02:43:37;79781.22;;;5.32;64.71
62680;BME280;68213;40.528;44.712;2023-03-16T02:44:54;79773.03;;;5.26;64.60
62680;BME280;68213;40.528;44.712;2023-03-16T02:45:57;79779.50;;;5.37;64.60
62680;BME280;68213;40.528;44.712;2023-03-16T02:47:02;79776.44;;;5.40;64.25
62680;BME280;68213;40.528;44.712;2023-03-16T02:48:09;79777.00;;;5.39;64.71
62680;BME280;68213;40.528;44.712;2023-03-16T02:49:28;79773.97;;;5.43;64.28
62680;BME280;68213;40.528;44.712;2023-03-16T02:50:31;79779.41;;;5.47;64.06
62680;BME280;68213;40.528;44.712;2023-03-16T02:51:32;79778.06;;;5.46;63.97
62680;BME280;68213;40.528;44.712;2023-03-16T02:52:34;79776.81;;;5.47;63.95
62680;BME280;68213;40.528;44.712;2023-03-16T02:53:35;79774.19;;;5.47;64.07
62680;BME280;68213;40.528;44.712;2023-03-16T02:54:36;79774.09;;;5.45;64.46
62680;BME280;68213;40.528;44.712;2023-03-16T02:55:36;79778.16;;;5.48;64.07
62680;BME280;68213;40.528;44.712;2023-03-16T02:56:38;79769.00;;;5.47;64.33
62680;BME280;68213;40.528;44.712;2023-03-16T02:57:39;79772.03;;;5.43;64.06
62680;BME280;68213;40.528;44.712;2023-03-16T02:58:39;79767.72;;;5.36;64.23
62680;BME280;68213;40.528;44.712;2023-03-16T02:59:40;79764.66;;;5.16;64.79
62680;BME280;68213;40.528;44.712;2023-03-16T03:00:43;79761.03;;;5.21;65.23
62680;BME280;68213;40.528;44.712;2023-03-16T03:01:44;79757.41;;;5.26;64.53
62680;BME280;68213;40.528;44.712;2023-03-16T03:02:47;79764.31;;;5.33;64.37
62680;BME280;68213;40.528;44.712;2023-03-16T03:03:50;79757.97;;;5.36;64.20
62680;BME280;68213;40.528;44.712;2023-03-16T03:04:51;79767.63;;;5.34;64.52
62680;BME280;68213;40.528;44.712;2023-03-16T03:05:53;79771.59;;;5.35;64.67
62680;BME280;68213;40.528;44.712;2023-03-16T03:06:54;79768.28;;;5.34;65.05
62680;BME280;68213;40.528;44.712;2023-03-16T03:07:55;79771.34;;;5.43;64.51
62680;BME280;68213;40.528;44.712;2023-03-16T03:08:56;79771.03;;;5.48;64.54
62680;BME280;68213;40.528;44.712;2023-03-16T03:09:57;79766.03;;;5.52;64.19
62680;BME280;68213;40.528;44.712;2023-03-16T03:10:58;79764.91;;;5.55;64.21
62680;BME280;68213;40.528;44.712;2023-03-16T03:11:59;79769.09;;;5.61;63.99
62680;BME280;68213;40.528;44.712;2023-03-16T03:13:00;79772.47;;;5.51;63.66
62680;BME280;68213;40.528;44.712;2023-03-16T03:14:00;79766.94;;;5.45;63.97
62680;BME280;68213;40.528;44.712;2023-03-16T03:15:01;79766.69;;;5.29;64.31
62680;BME280;68213;40.528;44.712;2023-03-16T03:16:03;79767.38;;;5.42;64.15
62680;BME280;68213;40.528;44.712;2023-03-16T03:17:06;79769.53;;;5.45;64.24
62680;BME280;68213;40.528;44.712;2023-03-16T03:18:07;79773.06;;;5.50;64.08
62680;BME280;68213;40.528;44.712;2023-03-16T03:19:08;79762.97;;;5.56;63.84
62680;BME280;68213;40.528;44.712;2023-03-16T03:20:10;79738.84;;;5.44;63.70
62680;BME280;68213;40.528;44.712;2023-03-16T03:21:20;79744.94;;;5.60;63.44
62680;BME280;68213;40.528;44.712;2023-03-16T03:22:23;79758.09;;;5.62;63.59
62680;BME280;68213;40.528;44.712;2023-03-16T03:23:27;79756.84;;;5.63;63.47
62680;BME280;68213;40.528;44.712;2023-03-16T03:24:31;79758.22;;;5.64;63.31
62680;BME280;68213;40.528;44.712;2023-03-16T03:25:32;79751.16;;;5.67;63.25
62680;BME280;68213;40.528;44.712;2023-03-16T03:26:36;79761.50;;;5.65;63.26
62680;BME280;68213;40.528;44.712;2023-03-16T03:27:37;79763.09;;;5.46;63.88
62680;BME280;68213;40.528;44.712;2023-03-16T03:28:38;79766.81;;;5.55;63.84
62680;BME280;68213;40.528;44.712;2023-03-16T03:29:38;79766.03;;;5.52;63.80
62680;BME280;68213;40.528;44.712;2023-03-16T03:30:39;79773.28;;;5.54;63.81
62680;BME280;68213;40.528;44.712;2023-03-16T03:31:39;79781.00;;;5.52;63.82
62680;BME280;68213;40.528;44.712;2023-03-16T03:32:40;79771.03;;;5.48;63.85
62680;BME280;68213;40.528;44.712;2023-03-16T03:33:41;79776.44;;;5.52;64.00
62680;BME280;68213;40.528;44.712;2023-03-16T03:34:43;79778.38;;;5.52;63.99
62680;BME280;68213;40.528;44.712;2023-03-16T03:35:43;79778.50;;;5.54;63.98
62680;BME280;68213;40.528;44.712;2023-03-16T03:36:44;79779.06;;;5.52;64.09
62680;BME280;68213;40.528;44.712;2023-03-16T03:37:45;79776.88;;;5.25;64.89
62680;BME280;68213;40.528;44.712;2023-03-16T03:38:45;79776.97;;;5.15;65.14
62680;BME280;68213;40.528;44.712;2023-03-16T03:39:46;79781.16;;;4.97;65.51
62680;BME280;68213;40.528;44.712;2023-03-16T03:40:52;79784.09;;;5.03;65.89
62680;BME280;68213;40.528;44.712;2023-03-16T03:41:53;79784.78;;;5.03;65.72
62680;BME280;68213;40.528;44.712;2023-03-16T03:42:53;79781.19;;;5.08;65.55
62680;BME280;68213;40.528;44.712;2023-03-16T03:43:59;79781.66;;;5.17;65.21
62680;BME280;68213;40.528;44.712;2023-03-16T03:45:01;79765.75;;;5.01;65.29
62680;BME280;68213;40.528;44.712;2023-03-16T03:46:03;79786.41;;;5.20;65.30
62680;BME280;68213;40.528;44.712;2023-03-16T03:47:04;79778.03;;;5.22;65.26
62680;BME280;68213;40.528;44.712;2023-03-16T03:48:05;79772.81;;;5.22;65.29
62680;BME280;68213;40.528;44.712;2023-03-16T03:49:05;79774.75;;;5.33;64.92
62680;BME280;68213;40.528;44.712;2023-03-16T03:50:08;79763.75;;;5.23;65.07
62680;BME280;68213;40.528;44.712;2023-03-16T03:51:09;79774.06;;;5.21;65.39
62680;BME280;68213;40.528;44.712;2023-03-16T03:52:10;79768.28;;;5.22;65.10
62680;BME280;68213;40.528;44.712;2023-03-16T03:53:11;79769.19;;;5.27;65.12
62680;BME280;68213;40.528;44.712;2023-03-16T03:54:11;79739.69;;;5.01;65.26
62680;BME280;68213;40.528;44.712;2023-03-16T03:55:12;79770.53;;;5.28;65.16
62680;BME280;68213;40.528;44.712;2023-03-16T03:56:13;79740.75;;;5.19;64.59
62680;BME280;68213;40.528;44.712;2023-03-16T03:57:13;79769.00;;;5.47;64.64
62680;BME280;68213;40.528;44.712;2023-03-16T03:58:14;79774.63;;;5.55;64.13
62680;BME280;68213;40.528;44.712;2023-03-16T03:59:15;79761.59;;;5.55;63.98
62680;BME280;68213;40.528;44.712;2023-03-16T04:00:16;79773.41;;;5.68;63.52
62680;BME280;68213;40.528;44.712;2023-03-16T04:01:20;79771.13;;;5.74;63.42
62680;BME280;68213;40.528;44.712;2023-03-16T04:02:20;79770.66;;;5.78;63.21
62680;BME280;68213;40.528;44.712;2023-03-16T04:03:21;79770.78;;;5.80;63.24
62680;BME280;68213;40.528;44.712;2023-03-16T04:04:22;79774.41;;;5.86;62.96
62680;BME280;68213;40.528;44.712;2023-03-16T04:05:23;79772.59;;;5.89;62.88
62680;BME280;68213;40.528;44.712;2023-03-16T04:06:27;79774.19;;;5.94;62.62
62680;BME280;68213;40.528;44.712;2023-03-16T04:07:27;79772.81;;;5.93;62.74
62680;BME280;68213;40.528;44.712;2023-03-16T04:08:28;79776.22;;;5.96;62.63
62680;BME280;68213;40.528;44.712;2023-03-16T04:09:29;79767.13;;;5.97;62.80
62680;BME280;68213;40.528;44.712;2023-03-16T04:10:33;79761.50;;;6.00;62.52
62680;BME280;68213;40.528;44.712;2023-03-16T04:11:34;79761.72;;;6.05;62.54
62680;BME280;68213;40.528;44.712;2023-03-16T04:12:34;79760.69;;;6.10;62.24
62680;BME280;68213;40.528;44.712;2023-03-16T04:13:35;79751.28;;;6.05;62.17
62680;BME280;68213;40.528;44.712;2023-03-16T04:14:36;79757.16;;;6.17;61.86
62680;BME280;68213;40.528;44.712;2023-03-16T04:15:36;79769.53;;;6.16;61.95
62680;BME280;68213;40.528;44.712;2023-03-16T04:16:38;79762.84;;;6.13;62.24
62680;BME280;68213;40.528;44.712;2023-03-16T04:17:38;79769.41;;;6.26;62.31
62680;BME280;68213;40.528;44.712;2023-03-16T04:18:39;79770.63;;;6.37;62.00
62680;BME280;68213;40.528;44.712;2023-03-16T04:19:40;79770.75;;;6.39;61.72
62680;BME280;68213;40.528;44.712;2023-03-16T04:20:40;79779.47;;;6.44;61.66
62680;BME280;68213;40.528;44.712;2023-03-16T04:21:41;79777.06;;;6.48;61.61
62680;BME280;68213;40.528;44.712;2023-03-16T04:22:42;79776.94;;;6.46;61.87
62680;BME280;68213;40.528;44.712;2023-03-16T04:23:43;79764.81;;;6.39;62.06
62680;BME280;68213;40.528;44.712;2023-03-16T04:24:43;79776.03;;;6.53;62.00
62680;BME280;68213;40.528;44.712;2023-03-16T04:25:44;79788.88;;;6.49;62.21
62680;BME280;68213;40.528;44.712;2023-03-16T04:26:45;79778.31;;;6.47;61.99
62680;BME280;68213;40.528;44.712;2023-03-16T04:27:46;79776.63;;;6.40;62.42
62680;BME280;68213;40.528;44.712;2023-03-16T04:28:47;79780.34;;;6.48;61.57
62680;BME280;68213;40.528;44.712;2023-03-16T04:29:47;79785.22;;;6.54;61.44
62680;BME280;68213;40.528;44.712;2023-03-16T04:30:48;79777.03;;;6.60;61.33
62680;BME280;68213;40.528;44.712;2023-03-16T04:31:49;79777.16;;;6.62;61.08
62680;BME280;68213;40.528;44.712;2023-03-16T04:32:50;79780.22;;;6.58;60.94
62680;BME280;68213;40.528;44.712;2023-03-16T04:33:51;79697.06;;;5.91;61.04
62680;BME280;68213;40.528;44.712;2023-03-16T04:34:55;79790.31;;;6.52;61.44
62680;BME280;68213;40.528;44.712;2023-03-16T04:35:59;79782.09;;;6.44;61.60
62680;BME280;68213;40.528;44.712;2023-03-16T04:36:59;79789.78;;;6.42;61.60
62680;BME280;68213;40.528;44.712;2023-03-16T04:38:04;79784.47;;;6.40;61.58
62680;BME280;68213;40.528;44.712;2023-03-16T04:39:05;79796.38;;;6.43;61.62
62680;BME280;68213;40.528;44.712;2023-03-16T04:40:06;79792.09;;;6.35;61.95
62680;BME280;68213;40.528;44.712;2023-03-16T04:41:16;79794.22;;;6.39;62.05
62680;BME280;68213;40.528;44.712;2023-03-16T04:42:17;79795.81;;;6.44;61.85
62680;BME280;68213;40.528;44.712;2023-03-16T04:43:18;79794.78;;;6.38;61.91
62680;BME280;68213;40.528;44.712;2023-03-16T04:44:20;79802.97;;;6.44;61.80
62680;BME280;68213;40.528;44.712;2023-03-16T04:45:20;79806.03;;;6.40;61.86
62680;BME280;68213;40.528;44.712;2023-03-16T04:46:21;79801.38;;;6.39;61.79
62680;BME280;68213;40.528;44.712;2023-03-16T04:47:24;79791.63;;;6.39;61.77
62680;BME280;68213;40.528;44.712;2023-03-16T04:48:25;79793.06;;;6.42;61.57
62680;BME280;68213;40.528;44.712;2023-03-16T04:49:26;79793.88;;;6.45;61.79
62680;BME280;68213;40.528;44.712;2023-03-16T04:50:27;79778.69;;;6.29;61.72
62680;BME280;68213;40.528;44.712;2023-03-16T04:51:27;79799.44;;;6.51;61.55
62680;BME280;68213;40.528;44.712;2023-03-16T04:52:29;79787.94;;;6.56;60.96
62680;BME280;68213;40.528;44.712;2023-03-16T04:53:30;79787.69;;;6.64;61.00
62680;BME280;68213;40.528;44.712;2023-03-16T04:54:31;79797.78;;;6.70;60.99
62680;BME280;68213;40.528;44.712;2023-03-16T04:55:32;79787.91;;;6.68;61.01
62680;BME280;68213;40.528;44.712;2023-03-16T04:56:33;79795.59;;;6.78;60.78
62680;BME280;68213;40.528;44.712;2023-03-16T04:57:34;79792.53;;;6.81;60.91
62680;BME280;68213;40.528;44.712;2023-03-16T04:58:34;79793.31;;;6.84;60.80
62680;BME280;68213;40.528;44.712;2023-03-16T04:59:35;79799.69;;;6.81;61.09
62680;BME280;68213;40.528;44.712;2023-03-16T05:00:36;79789.75;;;6.91;61.02
62680;BME280;68213;40.528;44.712;2023-03-16T05:01:36;79786.78;;;6.97;60.80
62680;BME280;68213;40.528;44.712;2023-03-16T05:02:37;79768.75;;;6.89;60.40
62680;BME280;68213;40.528;44.712;2023-03-16T05:03:38;79792.16;;;7.13;60.11
62680;BME280;68213;40.528;44.712;2023-03-16T05:04:41;79784.44;;;7.15;59.99
62680;BME280;68213;40.528;44.712;2023-03-16T05:05:42;79783.97;;;7.19;60.33
62680;BME280;68213;40.528;44.712;2023-03-16T05:06:42;79766.56;;;7.23;59.59
62680;BME280;68213;40.528;44.712;2023-03-16T05:07:44;79782.59;;;7.43;59.44
62680;BME280;68213;40.528;44.712;2023-03-16T05:08:46;79769.81;;;7.50;59.01
62680;BME280;68213;40.528;44.712;2023-03-16T05:09:48;79781.56;;;7.62;58.70
62680;BME280;68213;40.528;44.712;2023-03-16T05:10:48;79781.28;;;7.70;58.20
62680;BME280;68213;40.528;44.712;2023-03-16T05:11:49;79777.25;;;7.81;58.05
62680;BME280;68213;40.528;44.712;2023-03-16T05:12:50;79774.84;;;7.85;58.02
62680;BME280;68213;40.528;44.712;2023-03-16T05:13:50;79783.84;;;7.96;57.53
62680;BME280;68213;40.528;44.712;2023-03-16T05:14:51;79778.22;;;8.02;57.55
62680;BME280;68213;40.528;44.712;2023-03-16T05:15:52;79779.97;;;8.11;57.39
62680;BME280;68213;40.528;44.712;2023-03-16T05:16:53;79776.88;;;8.15;57.29
62680;BME280;68213;40.528;44.712;2023-03-16T05:17:54;79787.06;;;8.22;57.17
62680;BME280;68213;40.528;44.712;2023-03-16T05:18:59;79787.25;;;8.26;57.17
62680;BME280;68213;40.528;44.712;2023-03-16T05:20:00;79780.28;;;8.31;57.07
62680;BME280;68213;40.528;44.712;2023-03-16T05:21:00;79781.81;;;8.36;56.59
62680;BME280;68213;40.528;44.712;2023-03-16T05:22:01;79780.25;;;8.45;56.21
62680;BME280;68213;40.528;44.712;2023-03-16T05:23:02;79781.63;;;8.46;56.35
62680;BME280;68213;40.528;44.712;2023-03-16T05:24:06;79780.66;;;8.53;56.20
62680;BME280;68213;40.528;44.712;2023-03-16T05:25:07;79780.97;;;8.60;56.04
62680;BME280;68213;40.528;44.712;2023-03-16T05:26:08;79783.59;;;8.60;56.24
62680;BME280;68213;40.528;44.712;2023-03-16T05:27:09;79785.31;;;8.69;55.65
62680;BME280;68213;40.528;44.712;2023-03-16T05:28:09;79786.94;;;8.76;55.85
62680;BME280;68213;40.528;44.712;2023-03-16T05:29:10;79790.16;;;8.88;55.10
62680;BME280;68213;40.528;44.712;2023-03-16T05:30:12;79767.81;;;8.87;54.79
62680;BME280;68213;40.528;44.712;2023-03-16T05:31:14;79785.13;;;9.09;54.18
62680;BME280;68213;40.528;44.712;2023-03-16T05:32:14;79793.31;;;9.15;54.21
62680;BME280;68213;40.528;44.712;2023-03-16T05:33:16;79772.22;;;9.13;54.31
62680;BME280;68213;40.528;44.712;2023-03-16T05:34:17;79782.97;;;9.19;54.02
62680;BME280;68213;40.528;44.712;2023-03-16T05:35:17;79781.31;;;9.26;53.96
62680;BME280;68213;40.528;44.712;2023-03-16T05:36:18;79780.91;;;9.31;53.70
62680;BME280;68213;40.528;44.712;2023-03-16T05:37:19;79785.22;;;9.25;53.45